Time;durP1;ratioP1;P1;durP2;ratioP2;P2;SDS_P1;SDS_P2;PMS_P1;PMS_P2;Temp;Humidity;BMP_temperature;BMP_pressure;BME280_temperature;BME280_humidity;BME280_pressure;Samples;Min_cycle;Max_cycle;Signal;HPM_P1;HPM_P2
2023/03/04 00:00:08;;;;;;;11.70;1.80;;;5.90;99.90;;;;;;6131850;23;20052;-79
2023/03/04 00:02:34;;;;;;;13.27;2.10;;;5.90;99.90;;;;;;6155395;23;20061;-78
2023/03/04 00:04:59;;;;;;;6.97;1.40;;;5.90;99.90;;;;;;6205443;23;20025;-78
2023/03/04 00:07:25;;;;;;;9.52;2.20;;;5.90;99.90;;;;;;6130675;23;20107;-80
2023/03/04 00:09:51;;;;;;;11.82;1.95;;;5.90;99.90;;;;;;6155413;23;20017;-79
2023/03/04 00:12:16;;;;;;;11.50;2.10;;;5.90;99.90;;;;;;6155548;23;20075;-78
2023/03/04 00:14:42;;;;;;;7.05;1.38;;;5.90;99.90;;;;;;6179725;23;20043;-78
2023/03/04 00:17:08;;;;;;;10.57;2.38;;;5.90;99.90;;;;;;6205016;23;20056;-78
2023/03/04 00:19:34;;;;;;;8.50;1.88;;;5.90;99.90;;;;;;6130091;23;20028;-78
2023/03/04 00:22:02;;;;;;;8.90;1.63;;;5.90;99.90;;;;;;6203753;23;20135;-79
2023/03/04 00:24:29;;;;;;;15.07;2.30;;;5.90;99.90;;;;;;6155535;23;20131;-78
2023/03/04 00:26:55;;;;;;;7.80;1.50;;;5.90;99.90;;;;;;6131148;23;20119;-78
2023/03/04 00:29:21;;;;;;;9.85;1.50;;;5.90;99.90;;;;;;6180060;23;20105;-78
2023/03/04 00:31:47;;;;;;;8.35;1.30;;;5.90;99.90;;;;;;6202552;23;20017;-78
2023/03/04 00:34:12;;;;;;;9.18;2.10;;;6.00;99.90;;;;;;6179310;23;20356;-78
2023/03/04 00:36:38;;;;;;;5.65;1.40;;;6.00;99.90;;;;;;6179834;23;20024;-78
2023/03/04 00:39:04;;;;;;;13.68;2.65;;;5.90;99.90;;;;;;6179427;23;20762;-77
2023/03/04 00:41:30;;;;;;;9.65;1.92;;;5.90;99.90;;;;;;6154946;23;20403;-78
2023/03/04 00:43:56;;;;;;;8.43;1.70;;;5.90;99.90;;;;;;6128985;23;20020;-79
2023/03/04 00:46:21;;;;;;;10.68;1.88;;;5.90;99.90;;;;;;6180365;23;20020;-78
2023/03/04 00:48:47;;;;;;;11.02;1.90;;;5.90;99.90;;;;;;6178318;23;20019;-79
2023/03/04 00:51:13;;;;;;;8.88;2.10;;;5.90;99.90;;;;;;6179976;23;20019;-78
2023/03/04 00:53:39;;;;;;;7.55;1.60;;;5.90;99.90;;;;;;6179054;23;20028;-77
2023/03/04 00:56:05;;;;;;;8.68;1.55;;;5.90;99.90;;;;;;6153973;23;20024;-78
2023/03/04 00:58:31;;;;;;;7.53;1.73;;;5.90;99.90;;;;;;6155081;23;20028;-78
2023/03/04 01:00:56;;;;;;;15.85;2.15;;;5.90;99.90;;;;;;6204653;23;20024;-78
2023/03/04 01:03:23;;;;;;;12.60;1.90;;;6.00;99.90;;;;;;6178142;23;20031;-78
2023/03/04 01:05:52;;;;;;;10.88;2.25;;;6.00;99.90;;;;;;6204361;23;20151;-79
2023/03/04 01:08:17;;;;;;;14.43;2.45;;;6.00;99.90;;;;;;6179291;23;20021;-78
2023/03/04 01:10:43;;;;;;;10.82;1.80;;;6.00;99.90;;;;;;6179260;23;20055;-78
2023/03/04 01:13:09;;;;;;;12.23;2.35;;;6.00;99.90;;;;;;6179262;23;20025;-78
2023/03/04 01:15:35;;;;;;;10.35;2.10;;;6.00;99.90;;;;;;6129402;23;20462;-79
2023/03/04 01:18:00;;;;;;;10.23;1.60;;;6.00;99.90;;;;;;6152267;23;20059;-79
2023/03/04 01:20:26;;;;;;;12.65;2.10;;;6.00;99.90;;;;;;6179410;23;20059;-78
2023/03/04 01:22:52;;;;;;;6.35;1.52;;;6.00;99.90;;;;;;6203292;23;20021;-78
2023/03/04 01:25:17;;;;;;;7.70;1.88;;;6.00;99.90;;;;;;6131197;23;20187;-78
2023/03/04 01:27:43;;;;;;;8.65;1.98;;;6.00;99.90;;;;;;6178506;23;20103;-78
2023/03/04 01:30:10;;;;;;;7.50;1.80;;;5.90;99.90;;;;;;6201732;23;20527;-78
2023/03/04 01:32:35;;;;;;;11.02;1.52;;;5.90;99.90;;;;;;6201546;23;20016;-78
2023/03/04 01:35:01;;;;;;;10.23;1.40;;;5.90;99.90;;;;;;6128686;23;20017;-78
2023/03/04 01:37:27;;;;;;;9.48;1.85;;;5.90;99.90;;;;;;6130086;23;20043;-78
2023/03/04 01:39:53;;;;;;;8.25;1.92;;;5.80;99.90;;;;;;6176867;23;20774;-79
2023/03/04 01:42:21;;;;;;;7.78;1.60;;;5.80;99.90;;;;;;6178194;23;20507;-78
2023/03/04 01:44:48;;;;;;;7.97;1.52;;;5.80;99.90;;;;;;6203215;23;20099;-78
2023/03/04 01:47:14;;;;;;;8.57;1.70;;;5.80;99.90;;;;;;6203698;23;20017;-79
2023/03/04 01:49:40;;;;;;;9.50;1.70;;;5.80;99.90;;;;;;6175975;23;20013;-79
2023/03/04 01:52:11;;;;;;;10.23;2.65;;;5.80;99.90;;;;;;6178551;23;20095;-78
2023/03/04 01:54:36;;;;;;;7.88;1.33;;;5.90;99.90;;;;;;6203974;23;20344;-78
2023/03/04 01:57:20;;;;;;;6.75;1.73;;;5.90;99.90;;;;;;6179571;23;20025;-78
2023/03/04 01:59:46;;;;;;;13.65;2.30;;;5.90;99.90;;;;;;6202560;23;20107;-81
2023/03/04 02:02:13;;;;;;;7.10;1.77;;;5.90;99.90;;;;;;6154919;23;20391;-78
2023/03/04 02:04:41;;;;;;;10.23;1.80;;;5.90;99.90;;;;;;6203196;23;20027;-79
2023/03/04 02:07:07;;;;;;;10.82;2.13;;;5.90;99.90;;;;;;6179742;23;20021;-78
2023/03/04 02:09:34;;;;;;;8.95;1.52;;;5.90;99.90;;;;;;6203931;23;20017;-78
2023/03/04 02:12:01;;;;;;;9.30;1.63;;;5.80;99.90;;;;;;6206127;23;20024;-78
2023/03/04 02:14:26;;;;;;;8.20;1.75;;;5.80;99.90;;;;;;6180940;23;20072;-78
2023/03/04 02:16:52;;;;;;;9.63;2.28;;;5.80;99.90;;;;;;6180239;23;20052;-78
2023/03/04 02:19:52;;;;;;;8.43;1.77;;;5.80;99.90;;;;;;6204048;23;20020;-78
2023/03/04 02:22:18;;;;;;;9.05;1.77;;;5.80;99.90;;;;;;6206112;23;20030;-78
2023/03/04 02:24:58;;;;;;;8.85;1.73;;;5.80;99.90;;;;;;6204039;23;20203;-80
2023/03/04 02:27:23;;;;;;;8.70;1.45;;;5.90;99.90;;;;;;6205492;23;20027;-78
2023/03/04 02:29:49;;;;;;;10.13;1.77;;;5.90;99.90;;;;;;6178581;23;20095;-79
2023/03/04 02:32:15;;;;;;;7.07;1.50;;;5.80;99.90;;;;;;6202744;23;20043;-79
2023/03/04 02:34:47;;;;;;;6.65;1.45;;;5.80;99.90;;;;;;6178636;23;20020;-80
2023/03/04 02:37:13;;;;;;;9.90;1.67;;;5.90;99.90;;;;;;6203396;23;20127;-79
2023/03/04 02:39:42;;;;;;;4.78;1.63;;;5.90;99.90;;;;;;6206224;23;20024;-80
2023/03/04 02:42:07;;;;;;;4.65;1.23;;;5.80;99.90;;;;;;6205034;23;20025;-77
2023/03/04 02:44:45;;;;;;;7.70;1.35;;;5.90;99.90;;;;;;6204884;23;20017;-77
2023/03/04 02:47:13;;;;;;;8.15;1.67;;;5.90;99.90;;;;;;6205321;23;20028;-78
2023/03/04 02:49:40;;;;;;;6.88;1.38;;;5.90;99.90;;;;;;6205978;23;20862;-80
2023/03/04 02:52:16;;;;;;;8.95;1.45;;;5.90;99.90;;;;;;6205388;23;20145;-78
2023/03/04 02:54:42;;;;;;;9.63;1.77;;;5.90;99.90;;;;;;6204152;23;20507;-80
2023/03/04 02:57:10;;;;;;;4.85;1.35;;;5.90;99.90;;;;;;6131244;23;20159;-78
2023/03/04 02:59:37;;;;;;;9.20;1.95;;;5.40;99.90;;;;;;6204193;23;20017;-78
2023/03/04 03:02:04;;;;;;;8.95;1.48;;;5.90;99.90;;;;;;6204740;23;20025;-77
2023/03/04 03:04:29;;;;;;;8.18;1.30;;;6.00;99.90;;;;;;6204533;23;20016;-77
2023/03/04 03:06:55;;;;;;;9.18;1.45;;;5.90;99.90;;;;;;6179402;23;20035;-77
2023/03/04 03:09:21;;;;;;;5.57;1.63;;;6.00;99.90;;;;;;6204529;23;20016;-79
2023/03/04 03:11:47;;;;;;;7.70;1.90;;;6.00;99.90;;;;;;6178060;23;20020;-79
2023/03/04 03:14:13;;;;;;;12.80;2.00;;;6.00;99.90;;;;;;6179118;23;20032;-78
2023/03/04 03:16:39;;;;;;;6.57;1.90;;;6.00;99.90;;;;;;6131087;23;20112;-78
2023/03/04 03:19:05;;;;;;;4.18;1.20;;;6.00;99.90;;;;;;6153976;23;20483;-78
2023/03/04 03:21:31;;;;;;;6.55;1.25;;;6.00;99.90;;;;;;6154226;23;20475;-79
2023/03/04 03:23:56;;;;;;;5.93;1.02;;;6.00;99.90;;;;;;6130925;23;20444;-81
2023/03/04 03:26:22;;;;;;;3.38;1.10;;;6.40;99.90;;;;;;6153138;23;20460;-79
2023/03/04 03:28:48;;;;;;;6.25;1.10;;;5.60;99.90;;;;;;6153474;23;20111;-79
2023/03/04 03:31:14;;;;;;;5.38;1.00;;;6.00;99.90;;;;;;6155607;23;20020;-80
2023/03/04 03:33:40;;;;;;;5.80;1.00;;;6.00;99.90;;;;;;6153394;23;20093;-80
2023/03/04 03:36:07;;;;;;;5.00;1.27;;;6.00;99.90;;;;;;6154936;23;20031;-79
2023/03/04 03:38:33;;;;;;;8.32;1.50;;;6.00;99.90;;;;;;6153649;23;20020;-79
2023/03/04 03:40:59;;;;;;;6.93;1.10;;;6.00;99.90;;;;;;6151909;23;20040;-77
2023/03/04 03:43:25;;;;;;;5.97;1.38;;;6.00;99.90;;;;;;6154696;23;20025;-78
2023/03/04 03:45:50;;;;;;;6.68;1.20;;;6.00;99.90;;;;;;6129778;23;20059;-77
2023/03/04 03:48:17;;;;;;;6.60;1.42;;;6.00;99.90;;;;;;6130538;23;20024;-79
2023/03/04 03:50:42;;;;;;;5.75;1.40;;;6.00;99.90;;;;;;6153244;23;20076;-79
2023/03/04 03:53:08;;;;;;;5.25;1.30;;;6.00;99.90;;;;;;6177321;23;20027;-77
2023/03/04 03:55:34;;;;;;;8.32;1.42;;;6.10;99.90;;;;;;6177989;23;20372;-77
2023/03/04 03:58:00;;;;;;;4.15;1.75;;;6.00;99.90;;;;;;6130426;23;20107;-78
2023/03/04 04:00:25;;;;;;;3.88;1.10;;;6.10;99.90;;;;;;6129604;23;20066;-79
2023/03/04 04:02:54;;;;;;;6.97;1.15;;;6.10;99.90;;;;;;6128039;23;20025;-79
2023/03/04 04:05:20;;;;;;;6.15;1.23;;;6.00;99.90;;;;;;6178296;23;20110;-78
2023/03/04 04:07:46;;;;;;;4.22;1.38;;;6.00;99.90;;;;;;6177629;23;20130;-79
2023/03/04 04:10:12;;;;;;;5.43;1.20;;;6.00;99.90;;;;;;6129713;23;20578;-78
2023/03/04 04:12:38;;;;;;;5.68;1.23;;;6.00;99.90;;;;;;6159335;23;20145;-78
2023/03/04 04:15:05;;;;;;;8.10;1.10;;;6.00;99.90;;;;;;6154028;23;20137;-78
2023/03/04 04:17:30;;;;;;;5.22;1.23;;;6.00;99.90;;;;;;6204468;23;20012;-78
2023/03/04 04:19:56;;;;;;;3.60;1.08;;;5.00;99.90;;;;;;6152381;23;20024;-78
2023/03/04 04:22:22;;;;;;;4.85;0.90;;;6.00;99.90;;;;;;6130057;23;20444;-80
2023/03/04 04:24:48;;;;;;;7.65;1.20;;;6.00;99.90;;;;;;6179525;23;20075;-79
2023/03/04 04:27:13;;;;;;;2.65;0.88;;;6.00;99.90;;;;;;6179367;23;20071;-77
2023/03/04 04:29:39;;;;;;;4.53;1.10;;;6.00;99.90;;;;;;6129044;23;20059;-78
2023/03/04 04:32:07;;;;;;;7.78;1.75;;;6.00;99.90;;;;;;6178242;23;20083;-77
2023/03/04 04:34:33;;;;;;;5.07;1.20;;;6.00;99.90;;;;;;6201297;23;20025;-78
2023/03/04 04:36:59;;;;;;;4.70;1.25;;;5.90;99.90;;;;;;6203284;23;20035;-78
2023/03/04 04:39:24;;;;;;;5.15;1.00;;;5.90;99.90;;;;;;6179244;23;20039;-77
2023/03/04 04:41:50;;;;;;;4.47;1.02;;;5.90;99.90;;;;;;6154094;23;20020;-79
2023/03/04 04:44:16;;;;;;;4.22;1.08;;;5.20;99.90;;;;;;6154564;23;20115;-82
2023/03/04 04:46:42;;;;;;;5.38;1.05;;;5.80;99.90;;;;;;6202194;23;20116;-79
2023/03/04 04:49:08;;;;;;;5.78;1.27;;;5.90;99.90;;;;;;6179503;23;20099;-80
2023/03/04 04:51:35;;;;;;;5.95;1.50;;;5.90;99.90;;;;;;6179264;23;20021;-80
2023/03/04 04:54:02;;;;;;;8.65;1.45;;;5.90;99.90;;;;;;6178939;23;20026;-78
2023/03/04 04:56:28;;;;;;;6.25;1.13;;;5.90;99.90;;;;;;6203167;23;20020;-78
2023/03/04 04:58:57;;;;;;;5.90;1.10;;;5.90;99.90;;;;;;6204630;23;20082;-78
2023/03/04 05:01:23;;;;;;;6.68;1.55;;;5.90;99.90;;;;;;6204240;23;20543;-78
2023/03/04 05:03:49;;;;;;;4.57;1.00;;;5.90;99.90;;;;;;6155837;23;20024;-79
2023/03/04 05:06:15;;;;;;;2.80;1.05;;;6.20;99.90;;;;;;6203720;23;20020;-78
2023/03/04 05:08:41;;;;;;;3.47;1.00;;;5.90;99.90;;;;;;6178852;23;20024;-77
2023/03/04 05:11:07;;;;;;;5.22;1.20;;;5.90;99.90;;;;;;6202745;23;20059;-79
2023/03/04 05:13:33;;;;;;;5.70;1.13;;;6.00;99.90;;;;;;6177198;23;20034;-77
2023/03/04 05:16:00;;;;;;;6.72;1.05;;;6.00;99.90;;;;;;6200935;23;20028;-77
2023/03/04 05:18:26;;;;;;;5.70;1.08;;;6.00;99.90;;;;;;6152242;23;20112;-77
2023/03/04 05:20:54;;;;;;;5.38;1.13;;;6.00;99.90;;;;;;6175296;23;20021;-79
2023/03/04 05:23:20;;;;;;;4.22;0.90;;;6.00;99.90;;;;;;6200677;23;20021;-78
2023/03/04 05:25:46;;;;;;;6.80;1.23;;;6.00;99.90;;;;;;6200467;23;20103;-78
2023/03/04 05:28:13;;;;;;;3.22;0.98;;;6.00;99.90;;;;;;6200090;23;20277;-79
2023/03/04 05:30:40;;;;;;;5.55;1.00;;;6.00;99.90;;;;;;6199910;23;20127;-78
2023/03/04 05:33:07;;;;;;;8.73;1.27;;;5.90;99.90;;;;;;6149672;23;20067;-78
2023/03/04 05:35:34;;;;;;;4.35;1.00;;;5.90;99.90;;;;;;6175635;23;20020;-79
2023/03/04 05:38:01;;;;;;;3.90;0.85;;;6.00;99.90;;;;;;6176005;23;20025;-77
2023/03/04 05:40:27;;;;;;;6.03;1.60;;;6.00;99.90;;;;;;6152855;23;20074;-77
2023/03/04 05:42:52;;;;;;;3.88;1.35;;;6.00;99.90;;;;;;6150738;23;20089;-79
2023/03/04 05:45:18;;;;;;;6.68;1.55;;;6.00;99.90;;;;;;6178437;23;20035;-78
2023/03/04 05:47:44;;;;;;;7.72;1.33;;;6.00;99.90;;;;;;6202851;23;20459;-78
2023/03/04 05:50:11;;;;;;;7.45;1.55;;;6.00;99.90;;;;;;6202334;23;20075;-77
2023/03/04 05:52:36;;;;;;;8.55;1.52;;;6.00;99.90;;;;;;6178283;23;20026;-78
2023/03/04 05:55:02;;;;;;;6.18;1.35;;;6.00;99.90;;;;;;6178534;23;20099;-77
2023/03/04 05:57:28;;;;;;;12.43;1.58;;;5.90;99.90;;;;;;6177850;23;20448;-79
2023/03/04 05:59:54;;;;;;;8.40;1.30;;;5.90;99.90;;;;;;6128887;23;20017;-79
2023/03/04 06:02:21;;;;;;;8.05;1.25;;;5.90;99.90;;;;;;6153047;23;20028;-78
2023/03/04 06:04:46;;;;;;;6.38;1.20;;;5.90;99.90;;;;;;6177548;23;20051;-78
2023/03/04 06:07:12;;;;;;;6.30;1.30;;;5.90;99.90;;;;;;6178631;23;20032;-78
2023/03/04 06:09:38;;;;;;;9.55;1.30;;;5.90;99.90;;;;;;6204055;23;20024;-79
2023/03/04 06:12:04;;;;;;;11.48;1.95;;;5.90;99.90;;;;;;6127882;23;20067;-78
2023/03/04 06:14:30;;;;;;;11.05;1.50;;;5.90;99.90;;;;;;6153396;23;20025;-79
2023/03/04 06:16:55;;;;;;;8.25;1.73;;;5.90;99.90;;;;;;6129535;23;20027;-80
2023/03/04 06:19:21;;;;;;;6.57;1.30;;;5.90;99.90;;;;;;6127932;23;20865;-80
2023/03/04 06:21:47;;;;;;;8.10;1.90;;;5.90;99.90;;;;;;6154987;23;20035;-79
2023/03/04 06:24:13;;;;;;;7.68;2.00;;;5.90;99.90;;;;;;6178562;23;20017;-79
2023/03/04 06:26:38;;;;;;;6.88;1.60;;;5.90;99.90;;;;;;6129354;23;20541;-79
2023/03/04 06:29:05;;;;;;;4.13;1.70;;;5.90;99.90;;;;;;6178291;23;20324;-78
2023/03/04 06:31:31;;;;;;;8.35;1.42;;;5.90;99.90;;;;;;6153884;23;20016;-78
2023/03/04 06:33:56;;;;;;;11.52;1.67;;;5.80;99.90;;;;;;6128517;23;20099;-79
2023/03/04 06:36:22;;;;;;;8.80;1.38;;;5.90;99.90;;;;;;6128972;23;20021;-78
2023/03/04 06:38:48;;;;;;;6.57;1.40;;;5.80;99.90;;;;;;6153878;23;20028;-78
2023/03/04 06:41:14;;;;;;;6.57;1.58;;;5.90;99.90;;;;;;6153756;23;20013;-78
2023/03/04 06:43:40;;;;;;;9.13;1.63;;;5.90;99.90;;;;;;6130223;23;20518;-78
2023/03/04 06:46:07;;;;;;;4.65;1.20;;;5.90;99.90;;;;;;6179171;23;20021;-78
2023/03/04 06:48:33;;;;;;;4.68;1.13;;;5.90;99.90;;;;;;6153987;23;20067;-78
2023/03/04 06:51:07;;;;;;;6.13;1.13;;;5.90;99.90;;;;;;6129170;23;20734;-79
2023/03/04 06:53:33;;;;;;;8.02;1.35;;;5.90;99.90;;;;;;6153148;23;20025;-78
2023/03/04 06:55:59;;;;;;;7.00;1.63;;;5.90;99.90;;;;;;6178284;23;20021;-79
2023/03/04 06:58:25;;;;;;;5.43;1.48;;;5.90;99.90;;;;;;6128360;23;20792;-79
2023/03/04 07:00:51;;;;;;;4.25;1.17;;;5.90;99.90;;;;;;6154286;23;20017;-78
2023/03/04 07:03:17;;;;;;;7.20;1.25;;;6.00;99.90;;;;;;6153747;23;20024;-77
2023/03/04 07:05:42;;;;;;;9.23;1.73;;;6.00;99.90;;;;;;6132191;23;20472;-78
2023/03/04 07:08:08;;;;;;;8.05;1.40;;;6.00;99.90;;;;;;6179020;23;20025;-77
2023/03/04 07:10:34;;;;;;;6.47;1.45;;;6.10;99.90;;;;;;6154555;23;20211;-79
2023/03/04 07:13:00;;;;;;;6.32;1.40;;;6.10;99.90;;;;;;6189154;23;20029;-78
2023/03/04 07:15:29;;;;;;;8.57;1.02;;;6.10;99.90;;;;;;6179750;23;20027;-76
2023/03/04 07:17:55;;;;;;;6.32;1.27;;;6.10;99.90;;;;;;6202059;23;20016;-81
2023/03/04 07:20:21;;;;;;;11.00;1.73;;;6.10;99.90;;;;;;6202794;23;20091;-83
2023/03/04 07:22:47;;;;;;;7.43;1.60;;;6.20;99.90;;;;;;6203904;23;20457;-81
2023/03/04 07:25:12;;;;;;;10.00;3.00;;;6.20;99.90;;;;;;6178605;23;20119;-82
2023/03/04 07:27:39;;;;;;;7.53;2.72;;;6.20;99.90;;;;;;6156636;23;20107;-81
2023/03/04 07:30:07;;;;;;;7.63;3.30;;;6.30;99.90;;;;;;6179780;23;20020;-80
2023/03/04 07:32:35;;;;;;;13.85;5.90;;;6.30;99.90;;;;;;6131070;23;20043;-82
2023/03/04 07:35:02;;;;;;;11.23;4.40;;;6.30;99.90;;;;;;6180310;23;20099;-83
2023/03/04 07:37:28;;;;;;;13.55;5.00;;;6.30;99.90;;;;;;6206454;23;20066;-80
2023/03/04 07:39:54;;;;;;;6.10;2.65;;;6.30;99.90;;;;;;6156821;23;20017;-83
2023/03/04 07:42:20;;;;;;;10.20;3.83;;;6.30;99.90;;;;;;6154642;23;20056;-81
2023/03/04 07:44:45;;;;;;;7.68;3.42;;;6.30;99.90;;;;;;6205526;23;20070;-81
2023/03/04 07:47:11;;;;;;;6.97;3.17;;;6.30;99.90;;;;;;6180835;23;20021;-82
2023/03/04 07:49:37;;;;;;;6.85;2.83;;;6.30;99.90;;;;;;6178604;23;20028;-77
2023/03/04 07:52:04;;;;;;;10.95;2.78;;;6.30;99.90;;;;;;6178459;23;20020;-80
2023/03/04 07:54:30;;;;;;;11.13;3.00;;;6.30;99.90;;;;;;6204658;23;20020;-80
2023/03/04 07:56:56;;;;;;;12.48;3.15;;;6.30;99.90;;;;;;6180827;23;20084;-78
2023/03/04 07:59:22;;;;;;;9.35;3.15;;;6.30;99.90;;;;;;6179915;23;20447;-84
2023/03/04 08:01:47;;;;;;;11.93;2.80;;;6.30;99.90;;;;;;6180576;23;20020;-80
2023/03/04 08:04:13;;;;;;;9.60;2.15;;;6.30;99.90;;;;;;6179555;23;20087;-82
2023/03/04 08:06:40;;;;;;;5.57;1.42;;;6.40;99.90;;;;;;6154465;23;20099;-77
2023/03/04 08:09:07;;;;;;;7.88;1.90;;;6.40;99.90;;;;;;6179226;23;20067;-84
2023/03/04 08:11:35;;;;;;;9.52;1.98;;;6.50;99.90;;;;;;6203175;23;20020;-80
2023/03/04 08:14:02;;;;;;;6.07;1.35;;;6.50;99.90;;;;;;6204059;23;20072;-80
2023/03/04 08:16:28;;;;;;;4.90;1.60;;;6.60;99.90;;;;;;6202922;23;20044;-79
2023/03/04 08:18:57;;;;;;;8.93;1.70;;;6.70;99.90;;;;;;6179712;23;20031;-79
2023/03/04 08:21:25;;;;;;;7.90;3.45;;;6.80;99.90;;;;;;6203624;23;20036;-80
2023/03/04 08:23:51;;;;;;;14.25;2.60;;;6.20;99.90;;;;;;6205378;23;20460;-81
2023/03/04 08:26:26;;;;;;;8.27;3.08;;;6.90;99.90;;;;;;6178791;23;20114;-80
2023/03/04 08:28:53;;;;;;;6.85;2.22;;;6.90;99.90;;;;;;6203702;23;20020;-79
2023/03/04 08:31:19;;;;;;;7.60;2.03;;;6.80;99.90;;;;;;6179533;23;20020;-80
2023/03/04 08:33:45;;;;;;;10.73;2.15;;;6.80;99.90;;;;;;6180056;23;20017;-81
2023/03/04 08:36:12;;;;;;;6.35;1.58;;;6.80;99.90;;;;;;6179674;23;20436;-79
2023/03/04 08:38:38;;;;;;;8.07;1.85;;;6.80;99.90;;;;;;6202755;23;20033;-81
2023/03/04 08:41:05;;;;;;;11.40;1.85;;;6.80;99.90;;;;;;6202761;23;20066;-88
2023/03/04 08:43:32;;;;;;;6.28;1.98;;;6.80;99.90;;;;;;6200479;23;20028;-82
2023/03/04 08:45:58;;;;;;;7.97;2.28;;;6.90;99.90;;;;;;6200243;23;20016;-80
2023/03/04 08:48:25;;;;;;;10.35;1.65;;;7.00;99.90;;;;;;6150214;23;20329;-82
2023/03/04 08:50:51;;;;;;;10.82;1.60;;;7.10;99.90;;;;;;6152604;23;20020;-80
2023/03/04 08:53:18;;;;;;;14.38;2.63;;;7.20;99.90;;;;;;6176409;23;20031;-79
2023/03/04 08:55:45;;;;;;;12.45;2.47;;;7.30;99.90;;;;;;6202076;23;20476;-80
2023/03/04 08:58:11;;;;;;;8.85;1.98;;;7.50;99.90;;;;;;6177096;23;20027;-81
2023/03/04 09:00:41;;;;;;;10.25;2.00;;;7.60;99.90;;;;;;6202847;23;20433;-79
2023/03/04 09:03:09;;;;;;;11.13;2.20;;;7.70;99.90;;;;;;6204141;23;20017;-81
2023/03/04 09:05:35;;;;;;;8.40;2.72;;;7.80;99.90;;;;;;6203152;23;20040;-80
2023/03/04 09:08:01;;;;;;;12.00;2.13;;;7.90;99.90;;;;;;6153759;23;20020;-80
2023/03/04 09:10:26;;;;;;;13.23;2.30;;;7.80;99.90;;;;;;6157352;23;20079;-80
2023/03/04 09:12:52;;;;;;;13.00;2.70;;;7.70;99.90;;;;;;6181802;23;20453;-80
2023/03/04 09:15:18;;;;;;;14.40;2.70;;;7.70;99.90;;;;;;6181930;23;20523;-81
2023/03/04 09:17:44;;;;;;;7.63;1.85;;;7.90;99.90;;;;;;6157010;23;20052;-82
2023/03/04 09:20:11;;;;;;;10.20;2.50;;;7.60;99.90;;;;;;6179983;23;20052;-80
2023/03/04 09:22:38;;;;;;;13.90;2.47;;;7.50;99.90;;;;;;6206141;23;20020;-79
2023/03/04 09:25:05;;;;;;;11.93;2.55;;;7.50;99.90;;;;;;6205764;23;20032;-83
2023/03/04 09:27:31;;;;;;;9.20;2.33;;;7.50;99.90;;;;;;6131824;23;20171;-79
2023/03/04 09:29:56;;;;;;;14.18;2.90;;;7.40;99.90;;;;;;6156607;23;20444;-81
2023/03/04 09:32:22;;;;;;;15.55;2.28;;;7.20;99.90;;;;;;6179259;23;20024;-81
2023/03/04 09:34:48;;;;;;;13.68;2.85;;;7.40;99.90;;;;;;6181577;23;20053;-82
2023/03/04 09:37:17;;;;;;;14.18;2.55;;;7.40;99.90;;;;;;6205015;23;20044;-83
2023/03/04 09:39:43;;;;;;;17.52;2.72;;;7.40;99.90;;;;;;6179935;23;20020;-80
2023/03/04 09:42:14;;;;;;;12.20;2.90;;;7.40;99.90;;;;;;6206247;23;20029;-80
2023/03/04 09:44:44;;;;;;;8.65;2.22;;;7.40;99.90;;;;;;6207577;23;20013;-81
2023/03/04 09:47:15;;;;;;;13.73;2.60;;;7.40;99.90;;;;;;6206187;23;20448;-81
2023/03/04 09:49:50;;;;;;;12.65;2.63;;;7.30;99.90;;;;;;6159274;23;20016;-84
2023/03/04 09:52:50;;;;;;;9.98;2.20;;;7.40;99.90;;;;;;6207829;23;20123;-85
2023/03/04 09:55:24;;;;;;;10.40;2.13;;;7.50;99.90;;;;;;6206589;23;20043;-84
2023/03/04 09:58:02;;;;;;;9.77;2.10;;;7.40;99.90;;;;;;6207522;23;20163;-85
2023/03/04 10:00:40;;;;;;;16.38;2.72;;;6.20;99.90;;;;;;6206669;23;20601;-83
2023/03/04 10:03:31;;;;;;;15.02;2.75;;;8.00;99.90;;;;;;6208240;23;20024;-83
2023/03/04 10:06:06;;;;;;;10.93;2.40;;;7.30;99.90;;;;;;6182424;23;20510;-84
2023/03/04 10:08:36;;;;;;;11.45;2.60;;;7.30;99.90;;;;;;6207573;23;20023;-79
2023/03/04 10:11:05;;;;;;;13.52;2.38;;;7.40;99.90;;;;;;6182522;23;20060;-80
2023/03/04 10:13:49;;;;;;;12.68;2.45;;;7.80;99.90;;;;;;6205966;23;20463;-83
2023/03/04 10:16:19;;;;;;;13.18;2.58;;;7.20;99.90;;;;;;6207840;23;20035;-82
2023/03/04 10:19:56;;;;;;;13.35;2.20;;;7.50;99.90;;;;;;6207332;23;20028;-82
2023/03/04 10:22:33;;;;;;;10.02;2.58;;;7.50;99.90;;;;;;6064953;23;20036;-81
2023/03/04 10:25:27;;;;;;;14.38;2.55;;;7.50;99.90;;;;;;6204616;23;20137;-84
2023/03/04 10:28:09;;;;;;;12.10;2.92;;;7.60;99.90;;;;;;6207208;23;20091;-80
2023/03/04 10:30:56;;;;;;;6.78;1.92;;;7.60;99.90;;;;;;6206356;23;20266;-82
2023/03/04 10:33:26;;;;;;;10.15;1.77;;;7.60;99.90;;;;;;6208269;23;20027;-81
2023/03/04 10:36:04;;;;;;;8.48;2.17;;;7.70;99.90;;;;;;6208405;23;20025;-81
2023/03/04 10:38:40;;;;;;;10.88;2.05;;;7.80;99.90;;;;;;6207096;23;20712;-81
2023/03/04 10:41:18;;;;;;;6.10;1.83;;;7.70;99.90;;;;;;6207608;23;20429;-80
2023/03/04 10:43:58;;;;;;;6.35;1.63;;;7.70;99.90;;;;;;6208072;23;20070;-79
2023/03/04 10:46:25;;;;;;;8.85;1.58;;;7.70;99.90;;;;;;6207507;23;20024;-79
2023/03/04 10:48:52;;;;;;;6.13;1.17;;;7.80;99.90;;;;;;6207634;23;20115;-80
2023/03/04 10:51:27;;;;;;;9.55;1.77;;;7.80;99.90;;;;;;6207709;23;20025;-82
2023/03/04 10:54:21;;;;;;;7.53;1.40;;;7.90;99.90;;;;;;6183020;23;20024;-80
2023/03/04 10:56:57;;;;;;;6.95;1.25;;;7.90;99.90;;;;;;6164749;23;20051;-80
2023/03/04 10:59:44;;;;;;;7.25;1.45;;;7.90;99.90;;;;;;6205793;23;20507;-80
2023/03/04 11:02:15;;;;;;;7.25;1.65;;;7.90;99.90;;;;;;6204586;23;20020;-81
2023/03/04 11:04:41;;;;;;;4.38;1.02;;;7.90;99.90;;;;;;6204574;23;20522;-79
2023/03/04 11:07:10;;;;;;;6.35;1.17;;;8.00;99.90;;;;;;6155699;23;20020;-80
2023/03/04 11:09:36;;;;;;;6.00;1.33;;;7.90;99.90;;;;;;6179539;23;20024;-81
2023/03/04 11:12:10;;;;;;;8.88;1.25;;;8.00;99.90;;;;;;6178400;23;20625;-78
2023/03/04 11:14:51;;;;;;;4.55;0.95;;;8.00;99.90;;;;;;6154623;23;20021;-79
2023/03/04 11:17:18;;;;;;;5.57;1.58;;;8.10;99.90;;;;;;6156099;23;20024;-81
2023/03/04 11:20:01;;;;;;;4.47;1.20;;;8.30;99.90;;;;;;6156230;23;20019;-82
2023/03/04 11:22:29;;;;;;;4.05;1.30;;;8.60;99.90;;;;;;6155740;23;20024;-81
2023/03/04 11:25:01;;;;;;;5.15;1.52;;;8.90;99.90;;;;;;6157944;23;20021;-82
2023/03/04 11:27:46;;;;;;;5.43;1.65;;;9.20;99.90;;;;;;6184140;23;20479;-82
2023/03/04 11:30:37;;;;;;;7.05;1.63;;;8.70;99.90;;;;;;6183447;23;20028;-80
2023/03/04 11:33:18;;;;;;;6.63;1.40;;;10.10;99.90;;;;;;6155935;23;20032;-82
2023/03/04 11:36:12;;;;;;;3.78;1.27;;;10.80;99.90;;;;;;6155744;23;20493;-83
2023/03/04 11:38:45;;;;;;;3.38;1.00;;;11.70;99.90;;;;;;6155373;23;20046;-81
2023/03/04 11:41:43;;;;;;;4.72;1.45;;;13.10;99.90;;;;;;6180823;23;20469;-80
2023/03/04 11:44:12;;;;;;;7.43;1.58;;;13.90;99.90;;;;;;6180129;23;20766;-81
2023/03/04 11:46:48;;;;;;;8.02;1.90;;;14.70;99.90;;;;;;6155983;23;20029;-80
2023/03/04 11:49:25;;;;;;;12.63;1.90;;;14.20;99.90;;;;;;6154473;23;20027;-78
2023/03/04 11:52:06;;;;;;;11.80;2.50;;;13.20;99.90;;;;;;6155066;23;20024;-80
2023/03/04 11:54:43;;;;;;;9.95;2.25;;;12.40;99.90;;;;;;6154880;23;20024;-79
2023/03/04 11:57:27;;;;;;;9.80;2.13;;;11.80;99.90;;;;;;6180224;23;20040;-79
2023/03/04 12:00:15;;;;;;;10.40;2.25;;;11.30;99.90;;;;;;6156277;23;20027;-80
2023/03/04 12:03:14;;;;;;;8.85;2.30;;;10.90;99.90;;;;;;6154797;23;20652;-79
2023/03/04 12:05:58;;;;;;;7.20;1.85;;;10.70;99.90;;;;;;6154202;23;20059;-79
2023/03/04 12:08:43;;;;;;;14.82;1.85;;;10.40;99.90;;;;;;6179715;23;20020;-80
2023/03/04 12:11:39;;;;;;;8.27;2.00;;;10.20;99.90;;;;;;6179317;23;20029;-79
2023/03/04 12:14:35;;;;;;;8.05;2.33;;;10.10;99.90;;;;;;6200506;23;20047;-77
2023/03/04 12:17:19;;;;;;;10.02;2.13;;;10.00;99.90;;;;;;6205932;23;20028;-78
2023/03/04 12:20:15;;;;;;;10.20;3.17;;;9.90;99.90;;;;;;6204967;23;20012;-78
2023/03/04 12:22:46;;;;;;;9.85;2.53;;;9.80;99.90;;;;;;6205509;23;20024;-78
2023/03/04 12:25:39;;;;;;;12.55;2.28;;;9.80;99.90;;;;;;6179871;23;20355;-78
2023/03/04 12:28:14;;;;;;;14.80;2.45;;;9.80;99.90;;;;;;6153584;23;20055;-80
2023/03/04 12:31:15;;;;;;;8.38;2.22;;;9.70;99.90;;;;;;6180309;23;20020;-80
2023/03/04 12:34:26;;;;;;;8.90;1.90;;;9.70;99.90;;;;;;6176055;23;20028;-79
2023/03/04 12:37:24;;;;;;;14.48;4.43;;;10.30;99.90;;;;;;6205661;23;20457;-81
2023/03/04 12:40:20;;;;;;;18.75;4.97;;;11.20;99.90;;;;;;6155959;23;20016;-81
2023/03/04 12:43:09;;;;;;;16.27;5.28;;;11.50;99.90;;;;;;6204031;23;20032;-81
2023/03/04 12:46:11;;;;;;;12.35;3.38;;;11.50;99.90;;;;;;6179753;23;20021;-79
2023/03/04 12:49:01;;;;;;;15.27;3.47;;;11.50;99.90;;;;;;6203213;23;20027;-78
2023/03/04 12:51:35;;;;;;;13.25;3.85;;;11.40;99.90;;;;;;6203437;23;20071;-81
2023/03/04 12:54:24;;;;;;;10.73;3.05;;;11.30;99.90;;;;;;6203751;23;20021;-78
2023/03/04 12:56:52;;;;;;;13.98;2.97;;;11.10;99.90;;;;;;6181181;23;20351;-78
2023/03/04 12:59:21;;;;;;;12.05;3.10;;;10.80;99.90;;;;;;6203683;23;20032;-79
2023/03/04 13:02:12;;;;;;;10.55;2.72;;;10.60;99.90;;;;;;6203737;23;20365;-78
2023/03/04 13:04:49;;;;;;;13.18;3.45;;;10.40;99.90;;;;;;6190410;23;20078;-78
2023/03/04 13:07:53;;;;;;;15.30;2.58;;;10.20;99.90;;;;;;6181782;23;20152;-79